Lewes, DE (19958)

2:17 AM EDT on August 22, 2014 (GMT -0400)
CDWX_BC | Change Station
CLOSE
Current Station
Personal Weather Station
Location: Lewes, DE
Elevation: 23 ft
Nearby Weather Stations

Elev 23 ft 38.75 °N, 75.14 °W | Updated 6 minutes ago

Overcast
Overcast
74.6 °F
Feels Like 72 °F
N
0.0
Wind Variable Wind from NE
Gusts 0.0 mph

Today
High -- | Low -- °F
--% Chance of Precip.
Yesterday
High -- | Low -- °F
Precip. -- in
6:20 AM 7:45 PM
Waning Crescent, 10% visible
Pressure 29.96 in
Visibility 10.0 miles
Clouds Mostly Cloudy 6000 ft
Overcast 10000 ft
Heat Index 72 °F
Dew Point 73 °F
Humidity 95%
Rainfall 0.00 in
Snow Depth Not available.
UV 0 out of 12
Pollen 9.00 out of 12
Air Quality Not available.
Flu Activity Not available.
METAR KGED 220554Z AUTO 17009KT 10SM BKN060 OVC100 24/22 A2996 RMK AO2 LTG DSNT NE RAB28E37 SLP144 P0000 60000 T02390222 10239 20233 58020

More Conditions Fewer Conditions

Pressure 29.96 in
Visibility 10.0 miles
Clouds Mostly Cloudy 6000 ft
Overcast 10000 ft
Heat Index 72 °F
Dew Point 73 °F
Humidity 95%
Rainfall 0.00 in
Snow Depth Not available.
UV 0 out of 12
Pollen 9.00 out of 12
Air Quality Not available.
Flu Activity Not available.
METAR KGED 220554Z AUTO 17009KT 10SM BKN060 OVC100 24/22 A2996 RMK AO2 LTG DSNT NE RAB28E37 SLP144 P0000 60000 T02390222 10239 20233 58020

More Conditions Fewer Conditions

Nowcast | as of 12:21 am EDT on August 22, 2014

Isolated showers and thunderstorms will slide east across Delmarva and the southern tip of New Jersey through the early morning hours. Occasional lightning and brief heavy rain is possible with the strongest of these storms.

×

10-Day Weather Forecast

Almanac

Astronomy

Aug. 22, 2014 Rise Set
Actual Time 6:20 AM EDT 7:45 PM EDT
Civil Twilight 5:52 AM EDT 8:13 PM EDT
Nautical Twilight 5:19 AM EDT 8:46 PM EDT
Astronomical Twilight 4:44 AM EDT 9:21 PM EDT
Moon 3:42 AM EDT 5:51 PM EDT
Length of Visible Light 14h 20m
Length of Day
13h 24m
Tomorrow will be 2m 19s shorter.
Waning Crescent, 10% of the Moon is Illuminated
Today
Waning Crescent
Aug 25
New
Sep 2
First Quarter
Sep 8
Full
Sep 15
Last Quarter

Today's Extremes

State Highs State Lows

Community

WunderPhotos

Upload Photos

1,746,131 photos uploaded!

Nearby

Snow Depth

Station Depth Elevation
No new snow has been reported.

Earthquake Activity

City Distance Mag. Time & Date
No recent earthquake activity has been reported nearby.
Minimum magnitude displayed is 2.5.

Coastal Water Temperatures

Place Temperature
Ocean City Inlet, MD 75.9 °F
Lewes, DE 73.9 °F
Cape May, NJ 80.1 °F

Nearby Weather Stations